Time;durP1;ratioP1;P1;durP2;ratioP2;P2;SDS_P1;SDS_P2;PMS_P1;PMS_P2;Temp;Humidity;BMP_temperature;BMP_pressure;BME280_temperature;BME280_humidity;BME280_pressure;Samples;Min_cycle;Max_cycle;Signal;HPM_P1;HPM_P2
2022/03/09 00:00:15;;;;;;;2.93;2.43;;;7.50;41.20;;;10.46;35.63;102348.66;5017223;28;20191;-55
2022/03/09 00:02:43;;;;;;;3.57;2.77;;;7.50;41.20;;;10.42;35.14;102355.19;5016710;28;20183;-56
2022/03/09 00:05:11;;;;;;;4.50;2.77;;;7.50;41.20;;;10.39;35.21;102354.63;5017440;28;20203;-54
2022/03/09 00:07:39;;;;;;;6.00;3.07;;;7.50;41.40;;;10.36;35.22;102361.00;5016688;28;20217;-54
2022/03/09 00:10:07;;;;;;;5.63;3.07;;;7.50;41.40;;;10.35;35.46;102354.06;5017595;28;20220;-54
2022/03/09 00:12:36;;;;;;;3.40;3.07;;;7.50;41.50;;;10.33;35.77;102353.34;5018592;28;20544;-55
2022/03/09 00:15:04;;;;;;;3.73;3.10;;;7.50;41.80;;;10.29;35.44;102362.50;5018090;28;20183;-54
2022/03/09 00:17:32;;;;;;;3.50;3.07;;;7.40;41.80;;;10.26;35.47;102359.28;5016998;28;20224;-55
2022/03/09 00:20:00;;;;;;;3.27;2.70;;;7.40;41.60;;;10.24;35.57;102354.16;5017494;28;20215;-55
2022/03/09 00:22:29;;;;;;;3.77;2.67;;;7.40;41.60;;;10.27;35.56;102358.31;5017418;28;20191;-55
2022/03/09 00:24:56;;;;;;;3.87;2.73;;;7.40;41.60;;;10.26;35.55;102365.38;5016774;28;20189;-55
2022/03/09 00:27:24;;;;;;;4.83;2.90;;;7.30;41.70;;;10.26;35.69;102368.00;5016232;28;20689;-55
2022/03/09 00:29:51;;;;;;;4.57;2.80;;;7.40;42.00;;;10.26;35.40;102364.53;5016675;28;20230;-55
2022/03/09 00:32:18;;;;;;;3.90;2.77;;;7.30;41.80;;;10.27;35.69;102364.41;5016688;28;20195;-55
2022/03/09 00:34:45;;;;;;;3.77;3.03;;;7.30;41.90;;;10.28;35.88;102373.97;5016162;28;20226;-54
2022/03/09 00:37:13;;;;;;;4.23;2.77;;;7.30;41.90;;;10.28;35.39;102370.50;5015852;28;20215;-57
2022/03/09 00:39:41;;;;;;;4.47;2.97;;;7.30;42.00;;;10.26;35.69;102373.28;5015334;28;20199;-56
2022/03/09 00:42:09;;;;;;;3.13;2.77;;;7.30;42.00;;;10.25;35.37;102371.59;5015480;28;20205;-56
2022/03/09 00:44:36;;;;;;;3.27;2.67;;;7.30;42.10;;;10.24;35.84;102369.09;5015734;28;20280;-54
2022/03/09 00:47:05;;;;;;;3.37;3.00;;;7.30;42.20;;;10.20;35.76;102372.00;5015295;28;20211;-56
2022/03/09 00:49:32;;;;;;;5.07;3.40;;;7.30;42.40;;;10.15;35.86;102375.97;5015506;28;20576;-54
2022/03/09 00:51:59;;;;;;;3.40;2.90;;;7.20;42.40;;;10.12;35.92;102371.84;5015453;28;20633;-56
2022/03/09 00:54:26;;;;;;;3.37;2.63;;;7.20;42.50;;;10.11;35.74;102370.16;5015645;28;20195;-54
2022/03/09 00:56:55;;;;;;;4.10;2.47;;;7.20;42.50;;;10.10;36.04;102367.63;5019114;28;20230;-54
2022/03/09 00:59:22;;;;;;;4.17;3.20;;;7.20;42.40;;;10.10;35.74;102372.91;5016019;28;20183;-55
2022/03/09 01:01:50;;;;;;;3.90;2.83;;;7.10;42.30;;;10.09;35.68;102374.69;5014850;28;20206;-55
2022/03/09 01:04:17;;;;;;;3.30;2.80;;;7.10;42.30;;;10.09;35.94;102377.31;5018221;28;20183;-58
2022/03/09 01:06:45;;;;;;;4.60;3.07;;;7.10;42.40;;;10.08;35.69;102380.06;5017605;28;20227;-55
2022/03/09 01:09:12;;;;;;;4.53;3.17;;;7.10;42.50;;;10.08;35.65;102380.06;5015970;28;20231;-55
2022/03/09 01:11:41;;;;;;;3.00;2.60;;;7.10;42.50;;;10.08;35.84;102387.94;5016029;28;20203;-53
2022/03/09 01:14:10;;;;;;;3.27;2.33;;;7.00;42.50;;;10.07;35.77;102383.66;5015534;28;20192;-53
2022/03/09 01:16:37;;;;;;;4.00;3.10;;;7.00;42.50;;;10.05;36.11;102385.59;5014818;28;20231;-54
2022/03/09 01:19:05;;;;;;;3.73;2.97;;;7.00;42.90;;;10.03;35.56;102392.78;5015232;28;20187;-55
2022/03/09 01:21:32;;;;;;;5.10;3.13;;;7.00;42.80;;;9.98;35.79;102385.25;5015082;28;20195;-55
2022/03/09 01:24:00;;;;;;;3.83;3.03;;;7.00;42.80;;;9.96;35.86;102389.03;5015499;28;20201;-56
2022/03/09 01:26:27;;;;;;;3.93;2.80;;;6.90;42.80;;;9.92;36.11;102395.47;5015030;28;20222;-53
2022/03/09 01:28:55;;;;;;;3.83;2.83;;;6.90;42.60;;;9.87;35.96;102387.97;5014886;28;20217;-55
2022/03/09 01:31:23;;;;;;;3.77;2.90;;;6.90;43.00;;;9.84;36.10;102382.16;5015321;28;20644;-55
2022/03/09 01:33:51;;;;;;;3.50;2.90;;;6.80;43.00;;;9.80;36.24;102381.56;5019339;28;20217;-54
2022/03/09 01:36:18;;;;;;;3.90;3.37;;;6.80;43.10;;;9.76;36.46;102381.97;5022109;28;20191;-56
2022/03/09 01:48:17;;;;;;;3.47;3.00;;;6.70;43.00;;;9.45;36.37;102376.63;5014570;28;20229;-56
2022/03/09 01:50:46;;;;;;;4.43;3.20;;;6.70;43.10;;;9.50;36.70;102384.13;5014570;28;20202;-57
2022/03/09 01:53:13;;;;;;;4.53;3.20;;;6.60;43.20;;;9.51;36.77;102384.00;5014815;28;20195;-55
2022/03/09 01:55:41;;;;;;;4.07;2.97;;;6.60;43.40;;;9.52;36.60;102377.78;5014670;28;20566;-54
2022/03/09 01:58:08;;;;;;;3.87;3.10;;;6.60;43.60;;;9.49;36.76;102378.03;5014897;28;20212;-55
2022/03/09 02:00:36;;;;;;;4.20;3.37;;;6.60;43.80;;;9.47;36.82;102374.72;5014580;28;20199;-56
2022/03/09 02:03:03;;;;;;;3.97;3.17;;;6.60;44.00;;;9.47;37.00;102381.75;5015016;28;20183;-56
2022/03/09 02:05:33;;;;;;;4.17;2.97;;;6.60;43.80;;;9.47;37.03;102382.59;5013642;28;20230;-56
2022/03/09 02:10:49;;;;;;;3.97;3.40;;;6.60;44.10;;;9.45;36.95;102381.03;5014925;28;20192;-55
2022/03/09 02:13:17;;;;;;;5.97;3.13;;;6.50;44.00;;;9.45;37.32;102367.91;5014604;28;20627;-56
2022/03/09 02:15:44;;;;;;;4.70;3.40;;;6.50;44.20;;;9.43;37.28;102370.69;5014653;28;20669;-54
2022/03/09 02:18:11;;;;;;;4.70;3.23;;;6.50;44.30;;;9.44;37.25;102369.69;5014243;28;20211;-52
2022/03/09 02:20:43;;;;;;;4.03;3.23;;;6.50;44.30;;;9.41;37.16;102362.06;5014603;28;20183;-55
2022/03/09 02:23:12;;;;;;;4.80;3.40;;;6.50;44.40;;;9.38;37.39;102372.84;5014651;28;20192;-56
2022/03/09 02:25:39;;;;;;;5.07;3.50;;;6.50;45.10;;;9.35;37.46;102367.84;5014418;28;20246;-55
2022/03/09 02:28:07;;;;;;;4.03;3.63;;;6.50;44.30;;;9.31;37.34;102373.47;5013935;28;20237;-54
2022/03/09 02:30:34;;;;;;;3.80;2.93;;;6.50;44.40;;;9.25;37.72;102369.53;5014515;28;20215;-55
2022/03/09 02:33:03;;;;;;;5.43;3.07;;;6.40;44.50;;;9.21;37.64;102377.81;5014382;28;20648;-56
2022/03/09 02:35:30;;;;;;;7.03;3.70;;;6.40;44.40;;;9.14;37.53;102372.22;5013970;28;20265;-54
2022/03/09 02:37:57;;;;;;;5.10;3.30;;;6.40;44.40;;;9.05;37.77;102378.22;5013344;28;20208;-54
2022/03/09 02:40:26;;;;;;;5.80;3.60;;;6.30;44.40;;;9.03;37.69;102369.63;5014413;28;20187;-54
2022/03/09 02:42:53;;;;;;;4.23;3.33;;;6.30;44.40;;;9.01;37.94;102370.72;5014113;28;20200;-54
2022/03/09 02:45:21;;;;;;;4.33;3.67;;;6.20;44.50;;;9.00;37.97;102372.50;5014063;28;20219;-55
2022/03/09 02:47:48;;;;;;;4.47;3.20;;;6.20;44.60;;;8.94;37.91;102370.34;5013762;28;20216;-56
2022/03/09 02:50:16;;;;;;;3.53;3.17;;;6.20;44.80;;;8.89;37.98;102367.25;5014270;28;20286;-55
2022/03/09 02:52:44;;;;;;;4.90;3.30;;;6.20;44.70;;;8.83;38.33;102373.03;5014134;28;20188;-56
2022/03/09 02:55:13;;;;;;;4.27;3.20;;;6.10;44.90;;;8.75;38.44;102370.16;5014287;28;20204;-56
2022/03/09 02:57:43;;;;;;;6.10;3.60;;;6.00;44.90;;;8.71;38.47;102368.75;5013994;28;20216;-53
2022/03/09 03:00:12;;;;;;;4.43;3.30;;;6.00;45.20;;;8.64;38.66;102376.28;5014687;28;20183;-54
2022/03/09 03:02:40;;;;;;;5.93;3.63;;;6.00;45.40;;;8.58;38.74;102379.38;5018332;28;20192;-55
2022/03/09 03:05:09;;;;;;;5.03;2.87;;;5.90;45.50;;;8.53;38.69;102380.72;5013993;28;20192;-55
2022/03/09 03:07:37;;;;;;;3.97;3.13;;;5.80;45.30;;;8.49;39.20;102374.00;5013797;28;20216;-54
2022/03/09 03:10:05;;;;;;;4.43;3.40;;;5.80;46.40;;;8.46;39.40;102375.09;5013553;28;20220;-56
2022/03/09 03:12:33;;;;;;;4.53;2.93;;;5.80;45.80;;;8.44;39.16;102368.31;5013984;28;20196;-55
2022/03/09 03:15:04;;;;;;;3.63;3.10;;;5.70;46.00;;;8.41;39.47;102376.44;5013811;28;20611;-56
2022/03/09 03:17:34;;;;;;;4.90;3.40;;;5.70;46.40;;;8.35;39.15;102376.88;5013590;28;20712;-56
2022/03/09 03:20:02;;;;;;;6.37;3.57;;;5.60;46.20;;;8.32;39.37;102371.91;5012505;28;20185;-54
2022/03/09 03:22:29;;;;;;;6.17;3.43;;;5.60;46.30;;;8.24;39.57;102369.84;5013953;28;20195;-53
2022/03/09 03:24:56;;;;;;;3.60;3.30;;;5.60;46.50;;;8.20;39.88;102376.28;5013622;28;20203;-55
2022/03/09 03:27:24;;;;;;;4.47;3.60;;;5.50;46.40;;;8.14;39.83;102374.97;5013822;28;20222;-54
2022/03/09 03:29:51;;;;;;;3.77;2.90;;;5.50;47.30;;;8.12;39.59;102376.88;5014083;28;20212;-53
2022/03/09 03:32:20;;;;;;;3.90;3.33;;;5.50;46.60;;;8.09;40.01;102371.00;5013582;28;20560;-55
2022/03/09 03:34:47;;;;;;;5.17;3.57;;;5.40;46.70;;;8.04;40.05;102366.13;5019220;28;20252;-55
2022/03/09 03:37:14;;;;;;;4.47;3.17;;;5.40;46.90;;;8.01;39.99;102368.97;5013698;28;20218;-55
2022/03/09 03:39:41;;;;;;;4.70;3.53;;;5.40;47.10;;;8.00;40.19;102372.56;5013954;28;20191;-54
2022/03/09 03:42:10;;;;;;;4.60;3.73;;;5.30;47.20;;;7.97;40.16;102367.53;5012668;28;20227;-53
2022/03/09 03:44:37;;;;;;;3.23;2.90;;;5.30;47.10;;;7.92;40.01;102369.69;5013571;28;20506;-54
2022/03/09 03:47:05;;;;;;;4.80;3.60;;;5.20;47.10;;;7.89;39.87;102374.34;5013582;28;20250;-54
2022/03/09 03:49:34;;;;;;;4.80;3.40;;;5.20;47.40;;;7.85;39.80;102378.13;5013709;28;20211;-55
2022/03/09 03:52:02;;;;;;;5.13;4.00;;;5.20;47.30;;;7.77;40.88;102370.88;5013555;28;20196;-55
2022/03/09 03:54:29;;;;;;;3.80;3.20;;;5.10;47.50;;;7.76;40.44;102373.59;5013389;28;20679;-55
2022/03/09 03:56:57;;;;;;;4.80;3.00;;;5.10;47.40;;;7.75;40.54;102366.69;5013210;28;20693;-56
2022/03/09 03:59:25;;;;;;;4.43;3.43;;;5.10;47.40;;;7.74;40.21;102370.25;5013265;28;20187;-53
2022/03/09 04:01:52;;;;;;;3.93;3.37;;;5.10;47.50;;;7.70;40.27;102367.00;5013648;28;20540;-56
2022/03/09 04:04:20;;;;;;;3.27;2.97;;;5.10;47.50;;;7.69;40.00;102367.97;5013767;28;20251;-56
2022/03/09 04:06:49;;;;;;;4.97;3.13;;;5.00;47.30;;;7.68;40.49;102371.53;5013733;28;20700;-55
2022/03/09 04:09:17;;;;;;;3.67;3.20;;;5.00;47.50;;;7.68;40.32;102371.53;5014698;28;20212;-55
2022/03/09 04:11:45;;;;;;;3.73;3.13;;;5.00;47.60;;;7.72;40.79;102377.38;5014200;28;20192;-54
2022/03/09 04:14:12;;;;;;;4.43;3.37;;;5.00;47.90;;;7.74;41.12;102370.25;5015844;28;20610;-55
2022/03/09 04:16:39;;;;;;;5.50;3.07;;;5.00;48.10;;;7.81;40.76;102379.31;5016663;28;20794;-54
2022/03/09 04:19:07;;;;;;;3.63;3.33;;;5.00;48.60;;;7.89;40.73;102380.38;5016845;28;20657;-54
2022/03/09 04:21:34;;;;;;;3.73;3.20;;;5.10;48.40;;;7.93;40.58;102381.84;5015448;28;20199;-54
2022/03/09 04:24:06;;;;;;;4.87;3.60;;;5.10;48.30;;;7.98;40.36;102384.97;5016692;28;20270;-55
2022/03/09 04:26:33;;;;;;;3.67;3.37;;;5.10;48.00;;;8.00;40.15;102388.28;5016131;28;20226;-56
2022/03/09 04:29:01;;;;;;;4.90;3.87;;;5.20;48.10;;;7.98;40.41;102390.19;5016733;28;20195;-54
2022/03/09 04:31:29;;;;;;;5.03;3.53;;;5.20;48.00;;;7.92;40.19;102390.66;5016734;28;20254;-54
2022/03/09 04:33:57;;;;;;;6.40;3.70;;;5.10;47.90;;;7.86;40.10;102379.81;5016538;28;20189;-54
2022/03/09 04:36:24;;;;;;;3.87;3.47;;;5.10;47.70;;;7.81;40.29;102385.41;5015926;28;20218;-53
2022/03/09 04:38:52;;;;;;;3.97;3.27;;;5.10;48.00;;;7.76;40.75;102382.28;5016016;28;20196;-56
2022/03/09 04:41:21;;;;;;;4.03;3.50;;;5.10;48.10;;;7.72;40.48;102383.47;5015890;28;20207;-54
2022/03/09 04:43:49;;;;;;;5.00;3.60;;;5.00;48.10;;;7.67;40.78;102380.38;5015771;28;20188;-55
2022/03/09 04:46:17;;;;;;;5.47;3.57;;;5.00;48.40;;;7.65;41.08;102384.88;5015377;28;20195;-53
2022/03/09 04:48:44;;;;;;;6.40;3.90;;;5.00;48.50;;;7.64;40.88;102374.50;5016121;28;20728;-55
2022/03/09 04:51:12;;;;;;;3.40;3.10;;;4.90;48.50;;;7.62;41.10;102372.00;5017474;28;20629;-53
2022/03/09 04:53:39;;;;;;;4.73;3.70;;;4.90;48.50;;;7.58;41.21;102375.81;5016082;28;20677;-55
2022/03/09 04:56:07;;;;;;;6.17;4.57;;;4.90;48.60;;;7.50;41.79;102368.53;5014347;28;20287;-54
2022/03/09 04:58:36;;;;;;;4.10;3.47;;;4.80;48.90;;;7.44;41.75;102362.91;5015627;28;20221;-54
2022/03/09 05:01:03;;;;;;;4.30;3.57;;;4.80;48.80;;;7.40;41.23;102372.78;5015457;28;20192;-56
2022/03/09 05:03:33;;;;;;;5.00;3.60;;;4.70;48.90;;;7.35;41.46;102366.19;5015785;28;20536;-55
2022/03/09 05:06:05;;;;;;;4.90;3.63;;;4.70;48.90;;;7.30;41.44;102376.16;5015552;28;20184;-55
2022/03/09 05:08:34;;;;;;;4.87;3.63;;;4.70;48.90;;;7.28;41.07;102372.81;5015772;28;20291;-57
2022/03/09 05:11:01;;;;;;;6.63;4.03;;;4.60;48.70;;;7.25;41.44;102375.69;5015596;28;20684;-54
2022/03/09 05:13:41;;;;;;;4.50;3.67;;;4.60;48.70;;;7.19;41.97;102376.13;5015529;28;20187;-54
2022/03/09 05:16:09;;;;;;;7.53;3.90;;;4.50;49.90;;;7.16;42.33;102379.81;5014595;28;20195;-54
2022/03/09 05:18:40;;;;;;;6.57;3.70;;;4.50;49.50;;;7.14;41.80;102375.63;5015615;28;20653;-54
2022/03/09 05:21:08;;;;;;;4.70;3.57;;;4.50;49.30;;;7.13;42.29;102368.75;5016374;28;20541;-55
2022/03/09 05:23:35;;;;;;;4.83;3.73;;;4.50;49.50;;;7.14;42.61;102380.84;5015681;28;20196;-54
2022/03/09 05:26:03;;;;;;;4.70;3.73;;;4.50;49.80;;;7.18;41.65;102377.09;5015237;28;20192;-55
2022/03/09 05:28:31;;;;;;;5.60;3.50;;;4.50;50.00;;;7.27;42.04;102376.41;5015306;28;20278;-53
2022/03/09 05:30:59;;;;;;;5.60;4.10;;;4.50;50.20;;;7.31;42.18;102368.22;5014774;28;20704;-55
2022/03/09 05:33:27;;;;;;;6.37;4.20;;;4.50;50.70;;;7.31;42.73;102367.38;5014573;28;20541;-54
2022/03/09 05:35:54;;;;;;;5.73;4.00;;;4.50;50.40;;;7.31;42.17;102364.75;5014833;28;20627;-54
2022/03/09 05:38:21;;;;;;;4.97;4.07;;;4.50;50.60;;;7.33;42.08;102370.72;5015081;28;20223;-56
2022/03/09 05:40:49;;;;;;;4.50;3.47;;;4.50;50.50;;;7.35;42.26;102381.91;5014884;28;20198;-55
2022/03/09 05:43:16;;;;;;;5.17;4.10;;;4.60;50.40;;;7.37;42.30;102372.97;5015116;28;20195;-55
2022/03/09 05:45:43;;;;;;;5.07;4.17;;;4.60;50.60;;;7.41;42.46;102373.59;5015124;28;20203;-54
2022/03/09 05:48:12;;;;;;;5.40;4.20;;;4.60;50.40;;;7.42;42.19;102381.34;5014641;28;20211;-54
2022/03/09 05:50:39;;;;;;;5.87;4.00;;;4.60;50.40;;;7.44;42.44;102378.63;5015839;28;20636;-55
2022/03/09 05:53:07;;;;;;;4.87;3.93;;;4.60;50.80;;;7.51;42.02;102374.59;5017708;28;20203;-56
2022/03/09 05:55:34;;;;;;;5.43;4.10;;;4.60;50.80;;;7.56;42.35;102371.63;5017609;28;20222;-56
2022/03/09 05:58:01;;;;;;;4.90;3.90;;;4.70;50.40;;;7.56;41.89;102380.31;5017037;28;20210;-55
2022/03/09 06:00:29;;;;;;;5.97;4.37;;;4.70;50.10;;;7.51;42.34;102383.28;5017316;28;20194;-55
2022/03/09 06:02:56;;;;;;;6.50;4.37;;;4.70;50.10;;;7.47;41.23;102388.84;5016569;28;20187;-54
2022/03/09 06:05:25;;;;;;;5.90;4.27;;;4.70;49.80;;;7.43;41.91;102387.41;5016725;28;20249;-56
2022/03/09 06:07:52;;;;;;;7.40;4.83;;;4.70;50.10;;;7.45;41.97;102386.38;5015629;28;20217;-56
2022/03/09 06:10:20;;;;;;;5.27;4.63;;;4.60;50.10;;;7.48;42.20;102386.16;5016643;28;20257;-56
2022/03/09 06:12:49;;;;;;;5.03;4.20;;;4.70;50.40;;;7.50;42.07;102394.72;5015684;28;20202;-54
2022/03/09 06:15:17;;;;;;;5.93;4.50;;;4.70;50.20;;;7.52;41.33;102386.75;5014115;28;20198;-55
2022/03/09 06:17:46;;;;;;;6.60;3.87;;;4.70;50.20;;;7.48;42.03;102396.63;5014414;28;20223;-54
2022/03/09 06:20:17;;;;;;;5.17;4.13;;;4.70;49.90;;;7.45;42.04;102402.09;5014855;28;20223;-54
2022/03/09 06:22:46;;;;;;;6.90;4.57;;;4.70;50.00;;;7.45;42.04;102390.75;5014589;28;20657;-55
2022/03/09 06:25:14;;;;;;;7.20;4.47;;;4.70;50.10;;;7.45;41.61;102396.00;5014967;28;20192;-55
2022/03/09 06:27:42;;;;;;;7.10;4.00;;;4.70;50.10;;;7.47;42.12;102391.47;5030340;28;20221;-56
2022/03/09 06:30:12;;;;;;;8.17;4.40;;;4.70;50.20;;;7.49;42.03;102386.94;5015544;28;20235;-55
2022/03/09 06:32:39;;;;;;;4.73;4.20;;;4.70;50.10;;;7.47;42.11;102388.84;5015070;28;20198;-54
2022/03/09 06:35:08;;;;;;;5.43;4.17;;;4.60;50.30;;;7.43;42.15;102393.50;5013770;28;20191;-56
2022/03/09 06:37:35;;;;;;;6.40;4.23;;;4.60;50.20;;;7.42;41.84;102398.84;5015114;28;20226;-54
2022/03/09 06:40:07;;;;;;;5.07;4.50;;;4.70;50.30;;;7.39;41.87;102391.22;5018054;28;20194;-55
2022/03/09 06:42:35;;;;;;;7.37;4.30;;;4.70;50.10;;;7.39;42.06;102401.69;5017759;28;20194;-56
2022/03/09 06:45:03;;;;;;;5.97;4.50;;;4.60;50.00;;;7.41;41.48;102399.81;5017036;28;20204;-54
2022/03/09 06:47:32;;;;;;;4.87;3.87;;;4.60;50.10;;;7.45;41.67;102402.09;5017429;28;20302;-56
2022/03/09 06:50:00;;;;;;;5.57;4.20;;;4.70;50.30;;;7.54;42.15;102400.56;5015320;28;20202;-56
2022/03/09 06:52:27;;;;;;;4.77;4.10;;;4.70;50.40;;;7.60;41.80;102413.22;5016193;28;20226;-56
2022/03/09 06:54:54;;;;;;;4.93;4.27;;;4.80;50.50;;;7.70;41.84;102410.75;5014158;28;20199;-56
2022/03/09 06:57:23;;;;;;;8.40;5.77;;;4.80;50.50;;;7.81;41.43;102419.47;5014025;28;20287;-54
2022/03/09 06:59:50;;;;;;;7.43;5.40;;;4.90;50.50;;;7.90;41.29;102418.78;5014728;28;20192;-56
2022/03/09 07:02:17;;;;;;;6.97;4.73;;;5.00;50.30;;;8.02;41.29;102423.09;5014739;28;20211;-55
2022/03/09 07:04:45;;;;;;;10.37;4.83;;;5.00;50.10;;;8.15;41.23;102429.06;5014473;28;20662;-55
2022/03/09 07:07:13;;;;;;;6.57;5.07;;;5.20;49.90;;;8.29;40.88;102435.09;5014499;28;20216;-55
2022/03/09 07:09:40;;;;;;;5.77;5.10;;;5.30;49.80;;;8.47;40.63;102433.66;4997074;28;20564;-56
2022/03/09 07:12:09;;;;;;;8.97;5.93;;;5.40;49.60;;;8.72;40.39;102433.44;5015292;28;20239;-56
2022/03/09 07:14:38;;;;;;;10.37;5.97;;;5.60;49.60;;;9.01;39.94;102431.94;5015652;28;20195;-57
2022/03/09 07:17:05;;;;;;;12.53;6.20;;;5.80;49.20;;;9.29;39.46;102434.03;5015303;28;20222;-55
2022/03/09 07:19:33;;;;;;;11.53;5.90;;;6.10;48.90;;;9.60;39.16;102435.00;5017160;28;20191;-54
2022/03/09 07:22:00;;;;;;;7.60;5.70;;;6.40;48.60;;;9.98;38.59;102437.06;5017222;28;20262;-55
2022/03/09 07:24:28;;;;;;;6.10;4.80;;;6.70;48.20;;;10.41;38.35;102440.34;5015856;28;20203;-55
2022/03/09 07:26:56;;;;;;;10.53;5.03;;;7.00;47.90;;;10.81;37.74;102437.78;5015356;28;20292;-55
2022/03/09 07:29:23;;;;;;;7.20;4.67;;;7.50;47.20;;;11.14;37.09;102436.59;5014505;28;20246;-55
2022/03/09 07:31:53;;;;;;;6.77;4.70;;;7.90;46.30;;;11.37;36.83;102440.63;5016739;28;20547;-55
2022/03/09 07:34:22;;;;;;;6.80;4.83;;;8.30;45.40;;;11.53;35.95;102438.28;5015185;28;20195;-56
2022/03/09 07:36:50;;;;;;;6.00;4.50;;;8.60;43.70;;;11.67;35.35;102447.59;5014480;28;20245;-56
2022/03/09 07:39:19;;;;;;;5.47;4.70;;;8.70;43.00;;;11.85;34.51;102449.41;5014625;28;20199;-55
2022/03/09 07:41:46;;;;;;;7.80;5.03;;;8.90;42.20;;;12.07;34.83;102453.56;5014314;28;20192;-55
2022/03/09 07:44:15;;;;;;;7.73;4.70;;;9.00;42.40;;;12.23;34.37;102449.34;5013842;28;20641;-57
2022/03/09 07:46:43;;;;;;;8.20;5.10;;;9.20;41.70;;;12.53;34.24;102450.91;5013422;28;20211;-56
2022/03/09 07:49:11;;;;;;;6.17;5.20;;;9.40;41.60;;;12.88;33.56;102447.56;5015541;28;20198;-54
2022/03/09 07:51:39;;;;;;;6.90;5.10;;;9.70;41.10;;;13.19;33.33;102450.75;5017614;28;20217;-55
2022/03/09 07:54:06;;;;;;;7.90;4.43;;;10.00;39.70;;;13.52;32.64;102458.03;5018232;28;20235;-54
2022/03/09 07:56:35;;;;;;;10.23;8.93;;;10.30;39.20;;;13.88;32.78;102453.53;5016880;28;20207;-54
2022/03/09 07:59:05;;;;;;;6.10;5.07;;;10.50;39.10;;;14.26;31.88;102458.47;5016843;28;20187;-57
2022/03/09 08:01:33;;;;;;;7.70;5.20;;;10.80;38.50;;;14.51;31.74;102452.31;5017891;28;20297;-56
2022/03/09 08:04:00;;;;;;;10.53;5.53;;;11.10;38.10;;;14.75;31.35;102452.44;5016777;28;20215;-54
2022/03/09 08:06:29;;;;;;;10.17;5.43;;;11.40;38.40;;;15.00;30.46;102447.25;5016494;28;20596;-55
2022/03/09 08:08:57;;;;;;;7.53;5.30;;;11.50;36.40;;;15.19;29.63;102453.06;5018094;28;20180;-55
2022/03/09 08:11:24;;;;;;;7.50;6.07;;;11.70;35.40;;;15.33;29.94;102460.41;5017643;28;20273;-56
2022/03/09 08:13:52;;;;;;;6.53;5.53;;;11.90;35.50;;;15.52;29.58;102459.31;5016305;28;20206;-55
2022/03/09 08:16:19;;;;;;;13.77;7.40;;;12.10;35.40;;;15.67;29.17;102452.34;5017082;28;20207;-56
2022/03/09 08:18:47;;;;;;;9.93;6.40;;;12.30;35.00;;;15.82;29.04;102452.50;5017374;28;20195;-56
2022/03/09 08:21:15;;;;;;;9.13;7.80;;;12.40;34.50;;;16.08;29.32;102450.50;5017463;28;20271;-56
2022/03/09 08:23:43;;;;;;;6.50;5.70;;;12.60;35.00;;;16.54;28.64;102446.28;5017646;28;20202;-57
2022/03/09 08:26:11;;;;;;;8.27;6.53;;;12.80;34.40;;;16.89;27.66;102445.81;5017503;28;20253;-57
2022/03/09 08:28:38;;;;;;;9.53;7.13;;;13.10;33.40;;;17.17;27.66;102452.28;5018672;28;20525;-56
2022/03/09 08:31:06;;;;;;;7.23;5.47;;;13.40;33.80;;;17.65;27.34;102450.34;5018258;28;20360;-57
2022/03/09 08:33:33;;;;;;;9.13;6.20;;;13.70;33.10;;;18.15;26.83;102466.53;5017261;28;20637;-57
2022/03/09 08:36:01;;;;;;;7.23;5.57;;;14.00;32.90;;;18.82;26.34;102453.97;5018047;28;20215;-55
2022/03/09 08:38:29;;;;;;;7.30;6.07;;;14.40;32.80;;;19.47;25.84;102459.25;5017336;28;20636;-56
2022/03/09 08:40:57;;;;;;;8.70;6.53;;;14.80;32.40;;;20.08;24.78;102455.91;5016348;28;20195;-55
2022/03/09 08:43:25;;;;;;;7.80;6.33;;;15.30;30.50;;;20.67;24.37;102458.13;5017809;28;20198;-59
2022/03/09 08:45:52;;;;;;;8.60;5.67;;;15.80;30.90;;;21.11;23.57;102460.41;5015798;28;20197;-55
2022/03/09 08:48:20;;;;;;;6.97;6.27;;;16.30;30.10;;;21.65;23.42;102450.41;5015576;28;20302;-58
2022/03/09 08:50:47;;;;;;;15.67;11.30;;;16.70;29.80;;;22.13;23.02;102459.09;5016615;28;20639;-56
2022/03/09 08:53:16;;;;;;;7.17;6.50;;;17.20;28.60;;;22.58;21.81;102457.34;5016358;28;20677;-56
2022/03/09 08:55:43;;;;;;;6.93;6.10;;;17.60;28.10;;;23.10;21.42;102453.63;5016276;28;20195;-55
2022/03/09 08:58:12;;;;;;;10.50;9.40;;;18.10;27.60;;;23.60;20.94;102471.53;5015273;28;20709;-57
2022/03/09 09:00:39;;;;;;;8.03;7.23;;;18.50;27.40;;;24.09;20.38;102460.81;5032257;28;20195;-58
2022/03/09 09:03:07;;;;;;;7.00;6.30;;;18.80;26.60;;;24.52;20.17;102462.63;5046062;28;20198;-58
2022/03/09 09:05:35;;;;;;;8.93;8.03;;;19.20;26.10;;;24.90;19.74;102465.94;5054328;28;20190;-59
2022/03/09 09:08:03;;;;;;;8.40;6.40;;;19.60;26.10;;;25.40;19.39;102464.63;5034727;28;20219;-57
2022/03/09 09:10:35;;;;;;;6.37;5.40;;;19.90;25.20;;;25.89;18.53;102465.28;5049036;28;20220;-57
2022/03/09 09:13:05;;;;;;;15.53;11.80;;;20.40;25.30;;;26.32;18.45;102467.66;5057833;28;20190;-57
2022/03/09 09:15:34;;;;;;;8.70;7.90;;;20.70;24.50;;;26.51;17.44;102461.91;5045723;28;20527;-57
2022/03/09 09:18:04;;;;;;;8.90;8.00;;;21.00;23.90;;;26.61;17.33;102456.72;5042241;28;20234;-58
2022/03/09 09:20:51;;;;;;;7.23;6.53;;;21.20;23.60;;;26.65;17.65;102444.34;5038624;28;20687;-56
2022/03/09 09:23:19;;;;;;;6.83;6.23;;;21.50;24.10;;;26.99;17.54;102458.03;5031083;28;20249;-58
2022/03/09 09:25:47;;;;;;;7.00;5.63;;;21.70;23.90;;;27.35;16.96;102457.63;5021674;28;20622;-58
2022/03/09 09:28:16;;;;;;;7.23;5.70;;;21.90;23.00;;;27.68;16.97;102451.44;5025172;28;20227;-58
2022/03/09 09:30:48;;;;;;;7.77;6.73;;;22.20;23.00;;;28.02;16.68;102448.50;5004913;28;20625;-61
2022/03/09 09:33:18;;;;;;;7.77;6.07;;;22.50;23.70;;;28.40;16.30;102449.56;5029378;28;20237;-59
2022/03/09 09:35:50;;;;;;;7.87;5.77;;;22.70;22.50;;;28.63;15.74;102444.75;5019520;28;20205;-59
2022/03/09 09:38:19;;;;;;;6.53;5.60;;;23.00;21.90;;;28.89;15.48;102443.13;5033966;28;20305;-57
2022/03/09 09:40:51;;;;;;;6.13;5.50;;;23.30;22.10;;;29.20;15.44;102447.81;5028942;28;20189;-60
2022/03/09 09:43:21;;;;;;;6.60;6.00;;;23.50;21.70;;;29.50;15.39;102453.53;5047613;28;20202;-59
2022/03/09 09:45:52;;;;;;;15.30;12.77;;;23.80;21.70;;;29.89;15.20;102442.44;5043854;28;20191;-57
2022/03/09 09:48:19;;;;;;;7.03;6.30;;;24.00;21.30;;;30.00;14.29;102444.97;5013928;28;20226;-58
2022/03/09 09:50:47;;;;;;;12.03;10.03;;;24.20;20.20;;;30.11;14.46;102445.84;5030735;28;20191;-60
2022/03/09 09:53:15;;;;;;;7.23;5.93;;;24.40;20.60;;;30.31;14.15;102448.66;5039255;28;20663;-67
2022/03/09 09:55:43;;;;;;;6.33;5.60;;;24.60;20.10;;;30.46;14.48;102448.78;5023046;28;20191;-58
2022/03/09 09:58:11;;;;;;;8.83;7.07;;;24.80;20.40;;;30.67;14.01;102455.94;5021721;28;20320;-56
2022/03/09 10:00:39;;;;;;;8.50;6.50;;;25.00;20.20;;;30.90;13.90;102449.25;5025932;28;20191;-57
2022/03/09 10:03:08;;;;;;;6.53;5.90;;;25.20;19.40;;;30.87;13.67;102448.91;5031641;28;20206;-55
2022/03/09 10:05:35;;;;;;;6.30;5.50;;;25.30;18.90;;;30.69;13.82;102448.31;5028790;28;20657;-56
2022/03/09 10:08:15;;;;;;;17.27;15.30;;;25.30;18.80;;;30.91;13.54;102450.03;5031241;28;20211;-58
2022/03/09 10:10:57;;;;;;;10.80;8.77;;;25.40;19.30;;;31.26;13.03;102444.69;5042443;28;20271;-57
2022/03/09 10:13:27;;;;;;;7.00;6.30;;;25.70;18.90;;;31.55;12.62;102444.97;5054726;28;20190;-57
2022/03/09 10:16:13;;;;;;;8.37;6.20;;;25.80;18.60;;;31.61;12.67;102450.16;5054445;28;20736;-58
2022/03/09 10:18:49;;;;;;;6.70;6.17;;;26.00;18.00;;;31.68;12.57;102449.88;5031182;28;20187;-57
2022/03/09 10:21:20;;;;;;;6.57;5.97;;;26.10;17.80;;;31.76;13.19;102452.06;5025195;28;20582;-56
2022/03/09 10:23:56;;;;;;;7.20;6.57;;;26.30;18.10;;;32.00;12.94;102450.38;5026090;28;20201;-57
2022/03/09 10:26:27;;;;;;;7.37;6.63;;;26.40;18.20;;;32.30;12.26;102446.78;5029262;28;20214;-56
2022/03/09 10:28:56;;;;;;;7.53;5.43;;;26.60;17.70;;;32.39;12.05;102445.09;5020550;28;20625;-57
2022/03/09 10:31:39;;;;;;;6.00;5.47;;;26.80;17.70;;;32.55;12.23;102450.25;5025646;28;20234;-58
2022/03/09 10:34:11;;;;;;;7.70;6.17;;;27.10;17.60;;;32.62;12.12;102449.94;5028457;28;20281;-57
2022/03/09 10:36:56;;;;;;;8.23;6.23;;;27.30;16.80;;;32.76;12.10;102446.31;5031720;28;20210;-56